Time;durP1;ratioP1;P1;durP2;ratioP2;P2;SDS_P1;SDS_P2;PMS_P1;PMS_P2;Temp;Humidity;BMP_temperature;BMP_pressure;BME280_temperature;BME280_humidity;BME280_pressure;Samples;Min_cycle;Max_cycle;Signal;HPM_P1;HPM_P2
2021/10/12 00:01:44;;;;;;;87.70;35.88;;;7.20;99.90;;;;;;5037507;28;20521;-71
2021/10/12 00:04:11;;;;;;;92.72;37.00;;;7.20;99.90;;;;;;5038506;28;20064;-71
2021/10/12 00:06:38;;;;;;;91.35;37.22;;;7.20;99.90;;;;;;5037457;28;20122;-73
2021/10/12 00:09:07;;;;;;;94.95;36.13;;;7.30;99.90;;;;;;5038395;28;20501;-71
2021/10/12 00:11:34;;;;;;;94.40;36.80;;;7.30;99.90;;;;;;5038222;28;20078;-71
2021/10/12 00:14:01;;;;;;;96.63;39.45;;;7.30;99.90;;;;;;5037099;28;20114;-72
2021/10/12 00:16:28;;;;;;;97.93;38.30;;;7.30;99.90;;;;;;5037529;28;20052;-71
2021/10/12 00:18:55;;;;;;;97.25;38.00;;;7.30;99.90;;;;;;5037673;28;20045;-71
2021/10/12 00:21:22;;;;;;;88.20;37.15;;;7.40;99.90;;;;;;5037254;28;20094;-71
2021/10/12 00:23:49;;;;;;;105.40;40.58;;;7.50;99.90;;;;;;5038411;28;20049;-71
2021/10/12 00:26:17;;;;;;;95.30;36.22;;;7.50;99.90;;;;;;5036303;28;20106;-71
2021/10/12 00:28:44;;;;;;;96.43;36.45;;;7.50;99.90;;;;;;5037629;28;20060;-71
2021/10/12 00:31:11;;;;;;;95.57;37.25;;;7.50;99.90;;;;;;5037162;28;20763;-74
2021/10/12 00:33:38;;;;;;;91.03;36.90;;;7.50;99.90;;;;;;5037402;28;20052;-71
2021/10/12 00:36:05;;;;;;;88.70;35.50;;;7.60;99.90;;;;;;5036751;28;20040;-74
2021/10/12 00:38:32;;;;;;;85.43;35.63;;;7.60;99.90;;;;;;5037220;28;20533;-70
2021/10/12 00:41:00;;;;;;;88.50;36.30;;;7.60;99.90;;;;;;5038043;28;20091;-71
2021/10/12 00:43:29;;;;;;;87.90;35.13;;;11.40;99.90;;;;;;5037893;28;20053;-70
2021/10/12 00:45:57;;;;;;;97.25;36.58;;;10.80;99.90;;;;;;5038023;28;20053;-71
2021/10/12 00:48:24;;;;;;;87.55;35.63;;;10.70;99.90;;;;;;5038735;28;20041;-75
2021/10/12 00:50:52;;;;;;;95.63;37.38;;;10.50;99.90;;;;;;5039036;28;20745;-73
2021/10/12 00:53:19;;;;;;;97.50;37.08;;;10.40;99.90;;;;;;5038496;28;20123;-73
2021/10/12 00:55:47;;;;;;;90.40;37.70;;;10.30;99.90;;;;;;5038344;28;20504;-75
2021/10/12 00:58:14;;;;;;;91.60;39.25;;;10.30;99.90;;;;;;5039049;28;20048;-74
2021/10/12 01:00:43;;;;;;;95.55;36.42;;;10.20;99.90;;;;;;5038125;28;20053;-73
2021/10/12 01:03:11;;;;;;;100.65;38.05;;;10.20;99.90;;;;;;5039122;28;20105;-72
2021/10/12 01:05:38;;;;;;;107.68;38.72;;;10.20;99.90;;;;;;5037895;28;20963;-75
2021/10/12 01:08:05;;;;;;;100.28;39.33;;;10.20;99.90;;;;;;5038163;28;20196;-72
2021/10/12 01:10:32;;;;;;;108.03;40.10;;;10.20;99.90;;;;;;5038986;28;20063;-72
2021/10/12 01:13:01;;;;;;;104.38;39.72;;;10.20;99.90;;;;;;5038732;28;20052;-72
2021/10/12 01:15:37;;;;;;;99.10;39.17;;;10.10;99.90;;;;;;5037562;28;20163;-73
2021/10/12 01:18:12;;;;;;;103.30;41.25;;;10.10;99.90;;;;;;5039451;28;20067;-72
2021/10/12 01:20:40;;;;;;;116.70;39.92;;;10.10;99.90;;;;;;5038641;28;20048;-73
2021/10/12 01:23:11;;;;;;;110.85;42.20;;;10.10;99.90;;;;;;5037922;28;20072;-73
2021/10/12 01:25:38;;;;;;;106.45;38.97;;;10.10;99.90;;;;;;5037884;28;20044;-73
2021/10/12 01:28:08;;;;;;;103.53;38.75;;;10.10;99.90;;;;;;5039172;28;20095;-73
2021/10/12 01:30:36;;;;;;;99.40;39.00;;;10.10;99.90;;;;;;5038763;28;20104;-77
2021/10/12 01:33:04;;;;;;;108.72;38.80;;;10.10;99.90;;;;;;5037973;28;20135;-73
2021/10/12 01:35:31;;;;;;;101.53;37.78;;;10.10;99.90;;;;;;5037916;28;20057;-73
2021/10/12 01:37:59;;;;;;;105.07;38.78;;;10.10;99.90;;;;;;5037735;28;20048;-74
2021/10/12 01:40:27;;;;;;;102.85;38.35;;;10.10;99.90;;;;;;5038569;28;20107;-73
2021/10/12 01:42:57;;;;;;;97.60;36.92;;;10.00;99.90;;;;;;5037680;28;20110;-73
2021/10/12 01:45:25;;;;;;;107.95;39.00;;;10.00;99.90;;;;;;5037046;28;20049;-73
2021/10/12 01:47:53;;;;;;;98.72;36.55;;;10.00;99.90;;;;;;5038264;28;20057;-72
2021/10/12 01:50:21;;;;;;;100.43;36.00;;;9.90;99.90;;;;;;5037878;28;20045;-75
2021/10/12 01:52:48;;;;;;;96.50;36.10;;;10.00;99.90;;;;;;5038916;28;20095;-73
2021/10/12 01:55:15;;;;;;;108.45;37.92;;;9.90;99.90;;;;;;5037775;28;20532;-74
2021/10/12 01:57:43;;;;;;;101.18;37.17;;;9.90;99.90;;;;;;5037449;28;20056;-77
2021/10/12 02:00:12;;;;;;;98.80;37.38;;;9.80;99.90;;;;;;5039153;28;20049;-73
2021/10/12 02:02:39;;;;;;;94.93;37.22;;;9.80;99.90;;;;;;5037894;28;20126;-73
2021/10/12 02:05:06;;;;;;;108.75;38.38;;;9.70;99.90;;;;;;5038189;28;20071;-75
2021/10/12 02:07:33;;;;;;;106.35;36.38;;;9.70;99.90;;;;;;5037791;28;20053;-73
2021/10/12 02:10:00;;;;;;;104.78;38.13;;;9.70;99.90;;;;;;5038726;28;20106;-75
2021/10/12 02:12:29;;;;;;;93.97;34.28;;;9.70;99.90;;;;;;5043031;28;20053;-73
2021/10/12 02:14:58;;;;;;;110.75;38.45;;;9.70;99.90;;;;;;5044459;28;20049;-75
2021/10/12 02:17:25;;;;;;;109.65;39.40;;;9.80;99.90;;;;;;5044620;28;20048;-73
2021/10/12 02:19:52;;;;;;;115.32;39.83;;;9.80;99.90;;;;;;5044299;28;20072;-72
2021/10/12 02:22:19;;;;;;;106.60;36.70;;;9.80;99.90;;;;;;5043999;28;20057;-76
2021/10/12 02:24:47;;;;;;;117.00;38.20;;;9.80;99.90;;;;;;5044565;28;20045;-73
2021/10/12 02:27:14;;;;;;;103.25;39.25;;;9.90;99.90;;;;;;5044764;28;20951;-75
2021/10/12 02:29:41;;;;;;;100.90;37.03;;;9.90;99.90;;;;;;5044323;28;20045;-73
2021/10/12 02:32:09;;;;;;;107.05;38.75;;;9.90;99.90;;;;;;5043774;28;20049;-73
2021/10/12 02:34:39;;;;;;;100.05;37.92;;;9.90;99.90;;;;;;5044071;28;20094;-75
2021/10/12 02:37:07;;;;;;;96.35;36.50;;;9.90;99.90;;;;;;5043632;28;20047;-73
2021/10/12 02:39:34;;;;;;;101.38;37.75;;;9.90;99.90;;;;;;5043406;28;20049;-73
2021/10/12 02:42:01;;;;;;;97.38;35.13;;;9.90;99.90;;;;;;5044169;28;20048;-73
2021/10/12 02:44:28;;;;;;;85.95;34.05;;;9.90;99.90;;;;;;5043819;28;20509;-72
2021/10/12 02:46:55;;;;;;;93.57;35.85;;;10.00;99.90;;;;;;5043484;28;20489;-76
2021/10/12 02:49:24;;;;;;;92.03;34.97;;;10.00;99.90;;;;;;5044354;28;20044;-73
2021/10/12 02:51:51;;;;;;;91.53;34.95;;;10.00;99.90;;;;;;5044604;28;20508;-73
2021/10/12 02:54:18;;;;;;;99.25;36.28;;;10.00;99.90;;;;;;5044147;28;20049;-72
2021/10/12 02:56:45;;;;;;;92.15;35.08;;;10.00;99.90;;;;;;5043580;28;21391;-74
2021/10/12 02:59:12;;;;;;;101.38;36.25;;;10.00;99.90;;;;;;5045120;28;20044;-73
2021/10/12 03:01:39;;;;;;;92.78;35.05;;;10.10;99.90;;;;;;5043431;28;20049;-73
2021/10/12 03:04:06;;;;;;;88.35;34.67;;;10.00;99.90;;;;;;5043582;28;20122;-72
2021/10/12 03:06:35;;;;;;;97.28;36.67;;;10.00;99.90;;;;;;5043113;28;20077;-73
2021/10/12 03:09:02;;;;;;;84.70;33.53;;;10.10;99.90;;;;;;5043119;28;20115;-75
2021/10/12 03:11:29;;;;;;;83.18;33.72;;;10.00;99.90;;;;;;5043677;28;20044;-73
2021/10/12 03:13:56;;;;;;;97.75;36.92;;;10.00;99.90;;;;;;5043126;28;20085;-73
2021/10/12 03:16:24;;;;;;;83.68;34.05;;;10.10;99.90;;;;;;5042991;28;20045;-76
2021/10/12 03:18:51;;;;;;;89.85;34.83;;;10.00;99.90;;;;;;5044194;28;20044;-76
2021/10/12 03:21:19;;;;;;;85.47;35.70;;;10.10;99.90;;;;;;5043858;28;20052;-74
2021/10/12 03:23:47;;;;;;;79.00;33.55;;;10.10;99.90;;;;;;5039613;28;20421;-73
2021/10/12 03:26:14;;;;;;;83.90;33.65;;;10.10;99.90;;;;;;5039731;28;20041;-73
2021/10/12 03:28:41;;;;;;;85.60;34.60;;;10.10;99.90;;;;;;5040826;28;20052;-75
2021/10/12 03:31:08;;;;;;;96.00;35.25;;;10.10;99.90;;;;;;5040727;28;20049;-74
2021/10/12 03:33:35;;;;;;;79.35;34.25;;;10.10;99.90;;;;;;5040999;28;20106;-74
2021/10/12 03:36:12;;;;;;;83.05;34.72;;;10.10;99.90;;;;;;5039296;28;20045;-73
2021/10/12 03:38:40;;;;;;;81.22;34.42;;;10.10;99.90;;;;;;5039861;28;20517;-74
2021/10/12 03:41:08;;;;;;;79.25;33.53;;;10.10;99.90;;;;;;5040193;28;20494;-72
2021/10/12 03:43:35;;;;;;;86.82;34.13;;;10.20;99.90;;;;;;5039455;28;20041;-72
2021/10/12 03:46:03;;;;;;;71.20;31.52;;;10.20;99.90;;;;;;5039225;28;20468;-74
2021/10/12 03:48:30;;;;;;;75.22;31.55;;;10.10;99.90;;;;;;5039590;28;20559;-73
2021/10/12 03:50:57;;;;;;;76.72;31.15;;;10.10;99.90;;;;;;5038887;28;20110;-73
2021/10/12 03:53:24;;;;;;;72.00;34.05;;;10.10;99.90;;;;;;5040437;28;20037;-72
2021/10/12 03:55:51;;;;;;;73.35;31.63;;;10.10;99.90;;;;;;5039542;28;20049;-73
2021/10/12 03:58:20;;;;;;;68.18;30.88;;;10.00;99.90;;;;;;5040576;28;20404;-72
2021/10/12 04:00:47;;;;;;;70.88;30.25;;;10.00;99.90;;;;;;5041061;28;20053;-72
2021/10/12 04:03:14;;;;;;;70.68;29.95;;;10.00;99.90;;;;;;5039946;28;20041;-74
2021/10/12 04:05:41;;;;;;;73.78;31.65;;;10.00;99.90;;;;;;5039257;28;20183;-73
2021/10/12 04:08:08;;;;;;;65.13;31.38;;;10.00;99.90;;;;;;5040349;28;20780;-76
2021/10/12 04:10:35;;;;;;;74.47;31.08;;;10.00;99.90;;;;;;5039523;28;20493;-72
2021/10/12 04:13:03;;;;;;;85.47;33.17;;;10.00;99.90;;;;;;5039816;28;20052;-72
2021/10/12 04:15:32;;;;;;;68.03;31.02;;;10.10;99.90;;;;;;5038205;28;20427;-73
2021/10/12 04:17:59;;;;;;;80.57;31.55;;;10.10;99.90;;;;;;5040500;28;20452;-73
2021/10/12 04:20:27;;;;;;;74.30;32.72;;;10.00;99.90;;;;;;5039126;28;20052;-72
2021/10/12 04:22:56;;;;;;;70.43;32.08;;;10.10;99.90;;;;;;5039358;28;20053;-72
2021/10/12 04:25:23;;;;;;;73.15;31.52;;;10.10;99.90;;;;;;5037608;28;20060;-73
2021/10/12 04:27:51;;;;;;;77.07;31.75;;;10.10;99.90;;;;;;5039792;28;20095;-73
2021/10/12 04:30:18;;;;;;;70.15;31.05;;;10.20;99.90;;;;;;5038767;28;20657;-73
2021/10/12 04:32:46;;;;;;;88.18;34.00;;;10.10;99.90;;;;;;5039132;28;20174;-73
2021/10/12 04:35:13;;;;;;;72.22;32.33;;;10.10;99.90;;;;;;5038438;28;20049;-73
2021/10/12 04:37:40;;;;;;;82.43;32.65;;;10.10;99.90;;;;;;5038992;28;20049;-73
2021/10/12 04:40:08;;;;;;;77.03;33.55;;;10.10;99.90;;;;;;5039109;28;20057;-73
2021/10/12 04:42:36;;;;;;;75.72;32.80;;;10.10;99.90;;;;;;5038601;28;20482;-75
2021/10/12 04:45:04;;;;;;;70.88;30.05;;;10.20;99.90;;;;;;5038993;28;20088;-75
2021/10/12 04:47:31;;;;;;;69.75;32.03;;;10.30;99.90;;;;;;5038494;28;20057;-73
2021/10/12 04:49:59;;;;;;;68.10;30.98;;;10.30;99.90;;;;;;5038157;28;20045;-75
2021/10/12 04:52:26;;;;;;;71.13;30.27;;;10.30;99.90;;;;;;5039359;28;20328;-71
2021/10/12 04:54:53;;;;;;;77.68;31.50;;;10.30;99.90;;;;;;5038513;28;20386;-73
2021/10/12 04:57:20;;;;;;;71.38;30.98;;;10.30;99.90;;;;;;5037210;28;20075;-73
2021/10/12 04:59:47;;;;;;;71.22;28.42;;;10.30;99.90;;;;;;5038598;28;20099;-75
2021/10/12 05:02:14;;;;;;;60.35;27.80;;;10.30;99.90;;;;;;5038924;28;20064;-73
2021/10/12 05:04:41;;;;;;;55.80;26.60;;;10.30;99.90;;;;;;5038473;28;20169;-73
2021/10/12 05:07:10;;;;;;;57.28;27.23;;;10.30;99.90;;;;;;5037156;28;20060;-73
2021/10/12 05:09:37;;;;;;;60.72;27.13;;;10.30;99.90;;;;;;5038937;28;20045;-73
2021/10/12 05:12:04;;;;;;;62.45;26.58;;;10.30;99.90;;;;;;5037851;28;20110;-72
2021/10/12 05:14:31;;;;;;;54.95;26.65;;;10.30;99.90;;;;;;5038862;28;20057;-72
2021/10/12 05:17:00;;;;;;;58.85;26.67;;;10.30;99.90;;;;;;5038315;28;20139;-75
2021/10/12 05:19:27;;;;;;;53.20;24.98;;;10.30;99.90;;;;;;5038207;28;20049;-75
2021/10/12 05:21:54;;;;;;;56.15;25.23;;;10.30;99.90;;;;;;5038290;28;20115;-72
2021/10/12 05:24:22;;;;;;;57.45;27.02;;;10.30;99.90;;;;;;5037699;28;20049;-76
2021/10/12 05:26:49;;;;;;;57.13;27.00;;;10.30;99.90;;;;;;5037611;28;20044;-76
2021/10/12 05:29:16;;;;;;;59.72;27.63;;;10.40;99.90;;;;;;5037925;28;20045;-73
2021/10/12 05:31:43;;;;;;;56.40;26.52;;;10.40;99.90;;;;;;5037891;28;20536;-77
2021/10/12 05:34:11;;;;;;;61.50;27.55;;;10.40;99.90;;;;;;5038160;28;20055;-78
2021/10/12 05:36:38;;;;;;;56.20;26.13;;;10.40;99.90;;;;;;5039253;28;20098;-78
2021/10/12 05:39:05;;;;;;;59.05;25.98;;;10.30;99.90;;;;;;5038454;28;20053;-77
2021/10/12 05:41:33;;;;;;;56.85;26.17;;;10.40;99.90;;;;;;5038305;28;20056;-73
2021/10/12 05:44:00;;;;;;;54.97;24.27;;;10.40;99.90;;;;;;5037997;28;20102;-75
2021/10/12 05:46:28;;;;;;;59.25;26.50;;;10.40;99.90;;;;;;5036785;28;20041;-73
2021/10/12 05:48:55;;;;;;;66.97;28.80;;;10.50;99.90;;;;;;5036672;28;20068;-74
2021/10/12 05:51:24;;;;;;;63.95;26.85;;;10.60;99.90;;;;;;5037219;28;20045;-71
2021/10/12 05:53:53;;;;;;;59.58;27.05;;;10.60;99.90;;;;;;5037250;28;20049;-72
2021/10/12 05:56:22;;;;;;;55.88;25.98;;;10.60;99.90;;;;;;5037240;28;20136;-72
2021/10/12 05:58:50;;;;;;;63.33;28.20;;;10.60;99.90;;;;;;5037707;28;20118;-72
2021/10/12 06:01:18;;;;;;;54.50;25.13;;;10.60;99.90;;;;;;5038408;28;20090;-71
2021/10/12 06:03:46;;;;;;;54.40;25.23;;;10.60;99.90;;;;;;5037181;28;20528;-75
2021/10/12 06:06:13;;;;;;;45.63;22.65;;;10.60;99.90;;;;;;5036362;28;20049;-74
2021/10/12 06:08:41;;;;;;;46.05;23.02;;;10.60;99.90;;;;;;5036007;28;20056;-76
2021/10/12 06:11:09;;;;;;;45.70;22.90;;;10.60;99.90;;;;;;5035951;28;20045;-75
2021/10/12 06:13:38;;;;;;;53.75;24.02;;;10.60;99.90;;;;;;5036470;28;20056;-76
2021/10/12 06:16:07;;;;;;;47.63;23.50;;;10.60;99.90;;;;;;5036109;28;20612;-76
2021/10/12 06:18:34;;;;;;;46.92;22.50;;;10.70;99.90;;;;;;5036457;28;20465;-73
2021/10/12 06:21:01;;;;;;;52.05;23.85;;;10.70;99.90;;;;;;5035615;28;20086;-73
2021/10/12 06:23:28;;;;;;;50.60;23.55;;;10.70;99.90;;;;;;5035751;28;20056;-72
2021/10/12 06:25:55;;;;;;;46.78;22.83;;;10.70;99.90;;;;;;5034824;28;20426;-76
2021/10/12 06:28:23;;;;;;;49.30;22.65;;;10.70;99.90;;;;;;5036686;28;20045;-71
2021/10/12 06:30:50;;;;;;;47.03;22.00;;;10.70;99.90;;;;;;5038416;28;20406;-72
2021/10/12 06:33:19;;;;;;;51.38;23.05;;;10.70;99.90;;;;;;5038428;28;20768;-71
2021/10/12 06:35:46;;;;;;;42.00;22.00;;;10.70;99.90;;;;;;5038546;28;20095;-73
2021/10/12 06:38:13;;;;;;;43.70;21.30;;;10.70;99.90;;;;;;5039248;28;20132;-75
2021/10/12 06:40:40;;;;;;;39.53;20.25;;;10.80;99.90;;;;;;5038684;28;20049;-75
2021/10/12 06:43:08;;;;;;;35.42;18.52;;;10.80;99.90;;;;;;5037708;28;20053;-75
2021/10/12 06:45:35;;;;;;;41.15;20.35;;;10.80;99.90;;;;;;5037755;28;20093;-76
2021/10/12 06:48:03;;;;;;;32.17;17.73;;;10.80;99.90;;;;;;5038401;28;20106;-75
2021/10/12 06:50:32;;;;;;;39.00;18.38;;;10.80;99.90;;;;;;5038329;28;20083;-72
2021/10/12 06:52:59;;;;;;;31.88;17.02;;;10.90;99.90;;;;;;5037694;28;20525;-74
2021/10/12 06:55:27;;;;;;;33.20;16.95;;;10.90;99.90;;;;;;5036282;28;20072;-76
2021/10/12 06:57:54;;;;;;;34.95;16.58;;;10.90;99.90;;;;;;5038797;28;20103;-74
2021/10/12 07:00:21;;;;;;;32.20;17.30;;;10.90;99.90;;;;;;5040425;28;20619;-76
2021/10/12 07:02:48;;;;;;;28.70;15.90;;;11.00;99.90;;;;;;5040008;28;20118;-73
2021/10/12 07:05:16;;;;;;;33.95;14.63;;;11.00;99.90;;;;;;5040765;28;20045;-75
2021/10/12 07:07:45;;;;;;;30.38;14.23;;;11.00;99.90;;;;;;5041503;28;20040;-72
2021/10/12 07:10:14;;;;;;;34.70;15.23;;;11.00;99.90;;;;;;5040875;28;20110;-72
2021/10/12 07:12:41;;;;;;;26.20;13.85;;;11.00;99.90;;;;;;5040856;28;20134;-72
2021/10/12 07:15:10;;;;;;;37.25;14.20;;;11.10;99.90;;;;;;5038298;28;20515;-72
2021/10/12 07:17:38;;;;;;;24.33;12.93;;;11.10;99.90;;;;;;5036734;28;20048;-73
2021/10/12 07:20:06;;;;;;;24.10;12.38;;;11.20;99.90;;;;;;5038275;28;20253;-72
2021/10/12 07:22:33;;;;;;;21.75;11.80;;;11.20;99.90;;;;;;5037379;28;20056;-72
2021/10/12 07:25:04;;;;;;;20.80;11.48;;;11.30;99.90;;;;;;5037737;28;20053;-72
2021/10/12 07:27:31;;;;;;;21.25;10.02;;;11.20;99.90;;;;;;5039395;28;20063;-75
2021/10/12 07:29:58;;;;;;;24.23;10.98;;;11.20;99.90;;;;;;5039610;28;20574;-72
2021/10/12 07:32:25;;;;;;;16.67;9.10;;;11.30;99.90;;;;;;5039540;28;20313;-71
2021/10/12 07:34:52;;;;;;;19.05;9.32;;;11.50;99.90;;;;;;5040819;28;20049;-68
2021/10/12 07:37:19;;;;;;;15.32;8.05;;;11.70;99.90;;;;;;5039333;28;20452;-70
2021/10/12 07:39:46;;;;;;;20.83;8.75;;;11.80;99.90;;;;;;5039895;28;20049;-74
2021/10/12 07:42:15;;;;;;;16.02;7.65;;;12.00;99.90;;;;;;5039506;28;20049;-71
2021/10/12 07:44:42;;;;;;;17.05;9.05;;;12.00;99.90;;;;;;5040502;28;20111;-74
2021/10/12 07:47:10;;;;;;;17.67;8.52;;;12.30;99.90;;;;;;5041346;28;20533;-71
2021/10/12 07:49:37;;;;;;;20.27;7.82;;;12.10;99.90;;;;;;5039277;28;20088;-74
2021/10/12 07:52:07;;;;;;;14.95;7.25;;;12.20;99.90;;;;;;5039050;28;20460;-74
2021/10/12 07:57:24;;;;;;;16.17;7.03;;;12.10;99.90;;;;;;5033977;28;20138;-75
2021/10/12 07:59:51;;;;;;;16.25;6.50;;;12.30;99.90;;;;;;5038415;28;20049;-76
2021/10/12 08:02:18;;;;;;;11.57;5.60;;;12.10;99.90;;;;;;5039784;28;20094;-71
2021/10/12 08:04:45;;;;;;;14.52;6.85;;;12.10;99.90;;;;;;5038971;28;20142;-72
2021/10/12 08:07:12;;;;;;;10.18;5.38;;;12.10;99.90;;;;;;5039836;28;20563;-71
2021/10/12 08:09:39;;;;;;;14.80;5.68;;;12.00;99.90;;;;;;5038964;28;20454;-72
2021/10/12 08:12:07;;;;;;;13.73;4.75;;;12.10;99.90;;;;;;5039353;28;20053;-74
2021/10/12 08:14:39;;;;;;;8.73;5.03;;;12.10;99.90;;;;;;5038722;28;20579;-72
2021/10/12 08:17:06;;;;;;;11.40;5.18;;;11.80;99.90;;;;;;5038484;28;20063;-76
2021/10/12 08:19:33;;;;;;;13.20;5.45;;;11.70;99.90;;;;;;5039033;28;20049;-72
2021/10/12 08:22:02;;;;;;;12.05;5.70;;;11.80;99.90;;;;;;5039507;28;20041;-71
2021/10/12 08:24:29;;;;;;;13.13;5.70;;;11.90;99.90;;;;;;5038712;28;20053;-72
2021/10/12 08:26:56;;;;;;;9.63;4.78;;;11.70;99.90;;;;;;5039084;28;20519;-74
2021/10/12 08:29:23;;;;;;;10.25;4.70;;;11.80;99.90;;;;;;5039533;28;20083;-71
2021/10/12 08:31:51;;;;;;;13.20;5.82;;;11.70;99.90;;;;;;5039201;28;20497;-71
2021/10/12 08:34:18;;;;;;;8.77;4.75;;;11.70;99.90;;;;;;5038616;28;20072;-74
2021/10/12 08:36:45;;;;;;;8.90;4.70;;;11.60;99.90;;;;;;5038440;28;20496;-74
2021/10/12 08:39:12;;;;;;;11.23;5.00;;;11.60;99.90;;;;;;5038864;28;20049;-72
2021/10/12 08:41:46;;;;;;;11.30;5.20;;;11.50;99.90;;;;;;5037900;28;20464;-72
2021/10/12 08:44:13;;;;;;;9.85;4.95;;;11.60;99.90;;;;;;5038217;28;20102;-75
2021/10/12 08:46:41;;;;;;;12.15;4.50;;;11.50;99.90;;;;;;5038176;28;20126;-71
2021/10/12 08:49:12;;;;;;;9.75;4.63;;;11.40;99.90;;;;;;5038527;28;20064;-71
2021/10/12 08:51:42;;;;;;;8.07;4.30;;;11.60;99.90;;;;;;5037912;28;20505;-70
2021/10/12 08:54:11;;;;;;;8.82;4.78;;;11.50;99.90;;;;;;5038394;28;20057;-74
2021/10/12 08:56:38;;;;;;;9.15;4.00;;;11.50;99.90;;;;;;5037764;28;20060;-73
2021/10/12 08:59:05;;;;;;;12.38;4.50;;;11.60;99.90;;;;;;5039478;28;20041;-71
2021/10/12 09:01:52;;;;;;;8.00;4.25;;;11.60;99.90;;;;;;5038459;28;20694;-74
2021/10/12 09:04:20;;;;;;;6.30;3.40;;;11.80;99.90;;;;;;5038170;28;20456;-75
2021/10/12 09:06:53;;;;;;;7.30;4.18;;;12.00;99.90;;;;;;5037719;28;20057;-72
2021/10/12 09:09:33;;;;;;;8.70;3.75;;;12.00;99.90;;;;;;5037975;28;20452;-74
2021/10/12 09:12:00;;;;;;;7.57;4.20;;;12.30;99.90;;;;;;5037714;28;20068;-75
2021/10/12 09:14:27;;;;;;;7.18;3.95;;;12.40;99.90;;;;;;5037335;28;20422;-80
2021/10/12 09:17:04;;;;;;;7.32;3.05;;;12.90;99.90;;;;;;5036893;28;20053;-72
2021/10/12 09:19:34;;;;;;;9.18;3.72;;;12.60;99.90;;;;;;5037385;28;20053;-74
2021/10/12 09:22:06;;;;;;;9.45;3.35;;;12.20;99.90;;;;;;5037535;28;20599;-74
2021/10/12 09:24:38;;;;;;;7.18;3.58;;;11.90;99.90;;;;;;5037251;28;20044;-75
2021/10/12 09:27:07;;;;;;;8.65;3.35;;;12.10;99.90;;;;;;5038099;28;20099;-77
2021/10/12 09:29:36;;;;;;;6.07;3.53;;;11.70;99.90;;;;;;5038484;28;20045;-76
2021/10/12 09:32:05;;;;;;;7.72;3.40;;;11.60;99.90;;;;;;5038048;28;20131;-75
2021/10/12 09:34:34;;;;;;;7.18;3.72;;;11.60;99.90;;;;;;5038052;28;20049;-72
2021/10/12 09:37:03;;;;;;;7.03;3.53;;;11.80;99.90;;;;;;5038253;28;20139;-73
2021/10/12 09:39:32;;;;;;;7.13;3.30;;;11.80;99.90;;;;;;5037575;28;20049;-72
2021/10/12 09:42:01;;;;;;;6.82;3.47;;;12.70;99.90;;;;;;5037201;28;20493;-71
2021/10/12 09:44:29;;;;;;;7.15;3.42;;;12.70;99.90;;;;;;5036641;28;20120;-75
2021/10/12 09:47:07;;;;;;;6.97;3.10;;;12.90;99.90;;;;;;5035934;28;20059;-74
2021/10/12 09:49:36;;;;;;;5.82;2.78;;;12.70;99.90;;;;;;5036925;28;20114;-70
2021/10/12 09:52:04;;;;;;;7.68;2.90;;;12.30;99.90;;;;;;5036826;28;20056;-74
2021/10/12 09:54:33;;;;;;;11.57;3.75;;;12.00;99.90;;;;;;5037461;28;20863;-75
2021/10/12 09:57:02;;;;;;;6.55;2.78;;;12.00;99.90;;;;;;5036385;28;20118;-72
2021/10/12 09:59:30;;;;;;;9.00;3.50;;;11.80;99.90;;;;;;5036972;28;20048;-75
2021/10/12 10:01:58;;;;;;;6.57;3.20;;;11.70;99.90;;;;;;5036874;28;20115;-72
2021/10/12 10:04:27;;;;;;;6.90;2.92;;;11.90;99.90;;;;;;5037194;28;20115;-72
2021/10/12 10:07:04;;;;;;;6.30;2.90;;;11.90;99.90;;;;;;5037476;28;20126;-74
2021/10/12 10:09:32;;;;;;;6.45;2.85;;;11.80;99.90;;;;;;5037428;28;20055;-74
2021/10/12 10:11:59;;;;;;;7.13;2.75;;;12.00;99.90;;;;;;5037545;28;20045;-72
2021/10/12 10:14:27;;;;;;;5.43;3.13;;;12.10;99.90;;;;;;5036991;28;20044;-72
2021/10/12 10:16:58;;;;;;;7.10;3.00;;;12.60;99.90;;;;;;5036022;28;20080;-72
2021/10/12 10:19:27;;;;;;;5.93;3.20;;;12.80;99.90;;;;;;5037097;28;20085;-72
2021/10/12 10:21:56;;;;;;;5.70;3.13;;;12.80;99.90;;;;;;5036761;28;20472;-71
2021/10/12 10:24:44;;;;;;;6.80;2.83;;;12.90;99.90;;;;;;5035491;28;20053;-72
2021/10/12 10:27:32;;;;;;;8.57;3.00;;;13.00;99.90;;;;;;5036374;28;20057;-73
2021/10/12 10:30:20;;;;;;;5.65;3.03;;;12.50;99.90;;;;;;5036231;28;20049;-75
2021/10/12 10:32:48;;;;;;;6.72;3.05;;;12.50;99.90;;;;;;5038824;28;20583;-73
2021/10/12 10:35:15;;;;;;;8.43;4.00;;;12.50;99.90;;;;;;5039494;28;20130;-73
2021/10/12 10:37:46;;;;;;;9.35;3.25;;;12.20;99.90;;;;;;5040820;28;20521;-72
2021/10/12 10:40:36;;;;;;;7.60;3.30;;;11.90;99.90;;;;;;5040881;28;20084;-71
2021/10/12 10:43:03;;;;;;;7.07;3.35;;;12.00;99.90;;;;;;5040757;28;20048;-73
2021/10/12 10:45:42;;;;;;;9.48;4.10;;;11.80;99.90;;;;;;5039902;28;20080;-73
2021/10/12 10:48:14;;;;;;;9.40;4.32;;;11.70;99.90;;;;;;5040371;28;20578;-72
2021/10/12 10:50:41;;;;;;;6.00;3.58;;;11.80;99.90;;;;;;5040332;28;20045;-72
2021/10/12 10:53:11;;;;;;;8.20;3.70;;;11.70;99.90;;;;;;5039957;28;20084;-72
2021/10/12 10:55:41;;;;;;;7.35;3.58;;;11.70;99.90;;;;;;5040302;28;20044;-71
2021/10/12 10:58:12;;;;;;;9.25;4.18;;;11.70;99.90;;;;;;5040595;28;20064;-70
2021/10/12 11:00:49;;;;;;;9.63;3.88;;;11.70;99.90;;;;;;5040687;28;20045;-69
2021/10/12 11:03:36;;;;;;;;;;;11.80;99.90;;;;;;5040789;28;20048;-69
2021/10/12 11:06:13;;;;;;;7.72;4.38;;;12.00;99.90;;;;;;5039040;28;19920;-68
2021/10/12 11:08:56;;;;;;;9.32;4.40;;;12.20;99.90;;;;;;5039839;28;20053;-68
2021/10/12 11:11:23;;;;;;;10.18;4.63;;;12.20;99.90;;;;;;5038444;28;20107;-69
2021/10/12 11:13:50;;;;;;;8.48;3.95;;;12.30;99.90;;;;;;5038144;28;20460;-69
2021/10/12 11:16:18;;;;;;;10.43;4.40;;;12.20;99.90;;;;;;5037078;28;20536;-69
2021/10/12 11:18:47;;;;;;;10.27;4.18;;;12.20;99.90;;;;;;5038155;28;20115;-69
2021/10/12 11:21:16;;;;;;;10.30;4.72;;;12.10;99.90;;;;;;5039690;28;20052;-69
2021/10/12 11:23:51;;;;;;;9.35;5.30;;;12.10;99.90;;;;;;5038674;28;20052;-69
2021/10/12 11:26:20;;;;;;;12.27;5.13;;;12.20;99.90;;;;;;5037298;28;20094;-70
2021/10/12 11:28:49;;;;;;;10.30;5.50;;;12.50;99.90;;;;;;5038721;28;20044;-69
2021/10/12 11:31:20;;;;;;;8.70;4.75;;;12.20;99.90;;;;;;5039258;28;20053;-70
2021/10/12 11:33:48;;;;;;;9.77;5.10;;;12.30;99.90;;;;;;5038605;28;20049;-69
2021/10/12 11:36:17;;;;;;;11.15;5.30;;;12.50;99.90;;;;;;5037217;28;20465;-70
2021/10/12 11:38:47;;;;;;;10.65;5.90;;;12.50;99.90;;;;;;5038548;28;20126;-69
2021/10/12 11:41:25;;;;;;;9.50;4.80;;;12.60;99.90;;;;;;5037140;28;20103;-69
2021/10/12 11:43:54;;;;;;;10.95;5.28;;;12.80;99.90;;;;;;5037745;28;20149;-69
2021/10/12 11:46:26;;;;;;;8.88;4.45;;;13.00;99.90;;;;;;5038118;28;20044;-69
2021/10/12 11:48:53;;;;;;;10.15;4.35;;;13.50;99.90;;;;;;5038362;28;20102;-70
2021/10/12 11:51:23;;;;;;;10.95;5.57;;;13.20;99.90;;;;;;5037628;28;20099;-70
2021/10/12 11:53:54;;;;;;;8.93;4.60;;;13.70;99.90;;;;;;5036431;28;20045;-70
2021/10/12 11:56:23;;;;;;;14.38;5.35;;;13.60;99.90;;;;;;5036994;28;20096;-69
2021/10/12 11:58:57;;;;;;;8.85;4.70;;;13.00;99.90;;;;;;5037535;28;20099;-70
2021/10/12 12:01:29;;;;;;;11.40;5.13;;;13.00;99.90;;;;;;5037623;28;20056;-70
2021/10/12 12:03:57;;;;;;;9.80;5.38;;;13.30;99.90;;;;;;5038413;28;20563;-70
2021/10/12 12:06:26;;;;;;;9.27;4.50;;;13.30;99.90;;;;;;5036506;28;20222;-70
2021/10/12 12:08:56;;;;;;;11.23;5.13;;;13.40;99.90;;;;;;5037120;28;20107;-70
2021/10/12 12:11:28;;;;;;;8.50;4.38;;;13.00;99.90;;;;;;5037566;28;20048;-70
2021/10/12 12:13:57;;;;;;;8.38;4.43;;;12.80;99.90;;;;;;5037687;28;20525;-70
2021/10/12 12:16:25;;;;;;;12.80;5.18;;;12.80;99.90;;;;;;5037702;28;20417;-70
2021/10/12 12:18:52;;;;;;;12.32;5.63;;;12.70;99.90;;;;;;5037171;28;20468;-70
2021/10/12 12:21:31;;;;;;;9.85;4.50;;;12.60;99.90;;;;;;5037955;28;20049;-70
2021/10/12 12:24:02;;;;;;;10.40;5.47;;;12.40;99.90;;;;;;5037949;28;20044;-69
2021/10/12 12:26:31;;;;;;;9.93;5.03;;;12.30;99.90;;;;;;5037909;28;20053;-69
2021/10/12 12:29:18;;;;;;;11.80;5.70;;;12.10;99.90;;;;;;5038657;28;20095;-68
2021/10/12 12:31:53;;;;;;;11.98;5.60;;;12.20;99.90;;;;;;5038296;28;20076;-70
2021/10/12 12:34:28;;;;;;;11.55;4.75;;;12.20;99.90;;;;;;5037752;28;20472;-68
2021/10/12 12:36:56;;;;;;;11.70;5.10;;;12.00;99.90;;;;;;5037387;28;20784;-69
2021/10/12 12:39:34;;;;;;;10.85;5.72;;;12.10;99.90;;;;;;5038358;28;20056;-69
2021/10/12 12:42:01;;;;;;;13.27;4.90;;;12.00;99.90;;;;;;5038591;28;20049;-70
2021/10/12 12:44:29;;;;;;;11.15;4.93;;;11.70;99.90;;;;;;5038110;28;20055;-70